КЛИМАТИЧНИ ДАННИ

ВЧЕРА
Time Temp. Dewp. Hum. Посока н Скорост на Пориви на Bar.
00:01 13.8 9.5 75 0 0 1012.4
00:11 13.8 9.5 75 0 0 1012.4
00:22 13.8 9.5 75 0 0 1012.4
00:32 13.8 9.5 75 0 0 1012.3
00:41 13.6 9.3 75 0 0 1012.3
00:52 13.5 9.2 75 0 0 1012.3
01:02 13.3 9 75 0 0 1012.3
01:12 13.2 8.9 75 0 0 1012.3
01:21 13.1 9 76 0 0 1012.2
01:32 13 8.9 76 0 0 1012.2
01:42 12.9 8.8 76 0 0 1012.2
01:52 12.9 8.8 76 0 0 1012.1
02:02 12.7 8.6 76 0 0 1012.2
02:12 12.7 8.6 76 0 0 1012.1
02:22 12.7 8.6 76 0 0 1012.2
02:32 12.8 8.7 76 0 0 1012.2
02:42 12.9 8.8 76 0 0 1012.1
02:52 12.9 8.8 76 0 0 1012.1
03:02 12.9 8.8 76 0 0 1012
03:13 12.9 9 77 0 0 1012.1
03:22 12.9 9 77 0 0 1012.1
03:32 12.9 9 77 0 0 1011.9
03:42 12.9 9 77 0 0 1012
03:53 12.8 8.9 77 0 0 1012.1
04:02 12.9 9 77 0 0 1012.2
04:12 12.9 9 77 0 0 1012.1
04:23 13 9.1 77 0 0 1012.1
04:33 13.2 9.3 77 0 0 1012
04:42 13.3 9.4 77 0 0 1012
04:53 13.5 9.6 77 0 0 1012
05:03 13.7 9.7 77 0 0 1012
05:13 13.8 9.8 77 0 0 1011.9
05:23 13.9 9.9 77 0 0 1012
05:33 14 10 77 0 0 1012
05:43 14.1 9.9 76 0 0 1012
05:53 14.1 9.9 76 0 0 1012
06:03 14.1 9.9 76 0 0 1011.9
06:13 14.1 9.9 76 0 0 1012
06:23 14.1 9.9 76 0 0 1012
06:33 14 9.8 76 0 0 1011.9
06:44 14 9.8 76 0 0 1011.9
06:53 14 9.8 76 0 0 1012
07:03 14.1 9.9 76 0 0 1012.1
07:13 14.1 9.9 76 0 0 1012.1
07:24 14.1 9.9 76 0 0 1012.1
07:33 14.2 10 76 0 0 1012.2
07:43 14.2 10 76 0 0 1012.3
07:54 14.3 9.9 75 0 0 1012.4
08:04 14.3 9.9 75 0 0 1012.3
08:13 14.4 10 75 0 0 1012.3
08:24 14.4 10 75 0 0 1012.2
08:34 14.6 10.2 75 0 0 1012.3
08:44 14.7 10.3 75 0 0 1012.3
08:53 14.8 10.4 75 0 0 1012.3
09:04 14.9 10.5 75 0 0 1012.3
09:14 15.1 10.7 75 0 0 1012.3
09:24 15.3 10.9 75 0 0 1012.3
09:34 15.6 11 74 0 0 1012.6
09:44 15.9 11.3 74 0 0 1012.6
09:54 16.1 11.5 74 0 0 1012.7
10:04 16.4 11.6 73 0 0 1012.8
10:14 16.5 11.6 73 0 0 1012.8
10:24 16.7 11.6 72 0 0 1012.9
10:34 16.8 11.7 72 0 0 1013
10:45 16.8 11.5 71 0 0 1013
10:54 16.7 11.4 71 0 0 1013
11:04 16.6 11.3 71 0 0 1013.2
11:14 16.6 11.3 71 0 0 1013.2
11:25 16.7 11.2 70 0 0 1013
11:34 16.9 11.4 70 0 0 1012.8
11:44 17.1 11.6 70 0 0 1012.8
11:55 17.3 11.6 69 0 0 1012.7
12:05 17.5 11.5 68 0 0 1012.6
12:15 17.6 11.4 67 0 0 1012.7
12:25 17.5 11.1 66 0 0 1012.7
12:35 17.6 11.2 66 0 0 1012.6
12:45 17.8 11.4 66 0 0 1012.5
12:55 17.9 11.2 65 0 0 1012.5
13:05 18.1 11.4 65 0 0 1012.3
13:15 18.3 11.6 65 0 0 1012.3
13:25 18.7 12 65 0 0 1012.1
13:35 18.9 11.9 64 0 0 1012.1
13:45 18.9 11.7 63 0 0 1012.1
13:55 19.1 11.7 62 0 0 1012
14:05 19.1 11.7 62 0 0 1012
14:16 19.2 11.8 62 0 0 1011.9
14:25 19.1 11.4 61 0 0 1012
14:35 19 11.1 60 0 0 1011.9
14:46 19 11.1 60 0 0 1011.9
14:56 19 11.1 60 0 0 1011.8
15:05 19.1 11.2 60 0 0 1011.9
15:15 19.2 11.3 60 0 0 1011.9
15:26 19.2 11 59 0 0 1011.8
15:36 19.3 11.1 59 0 0 1011.8
15:46 19.2 11 59 0 0 1011.7
15:56 19.2 11 59 0 0 1011.7
16:06 19 10.8 59 0 0 1011.8
16:16 18.8 10.6 59 0 0 1011.8
16:26 18.7 10.5 59 0 0 1011.8
16:36 18.6 10.4 59 0 0 1011.9
16:46 18.4 10.3 59 0 0 1011.8
16:56 18.2 10.1 59 0 0 1011.7
17:06 18 10.1 60 0 0 1011.8
17:16 17.8 9.9 60 0 0 1011.7
17:26 17.7 9.8 60 0 0 1011.8
17:36 17.6 10 61 0 0 1011.8
17:47 17.3 9.7 61 0 0 1011.6
17:56 17.1 9.5 61 0 0 1011.7
18:06 17 9.4 61 0 0 1011.7
18:17 16.8 9.2 61 0 0 1011.7
18:27 16.7 9.2 61 0 0 1011.7
18:37 16.5 9.2 62 0 0 1011.7
18:46 16.4 9.3 63 0 0 1011.8
18:57 16.3 9.3 63 0 0 1011.8
19:07 16.1 9.1 63 0 0 1011.9
19:17 16 9.2 64 0 0 1012.1
19:27 15.9 9.1 64 0 0 1012.2
19:37 15.9 9.1 64 0 0 1012.3
19:47 15.7 8.9 64 0 0 1012.4
19:57 15.6 8.8 64 0 0 1012.5
20:07 15.4 8.6 64 0 0 1012.6
20:17 15.2 8.2 63 0 0 1012.7
20:27 15.1 8.3 64 0 0 1012.7
20:38 15 8.3 64 0 0 1012.7
20:47 14.9 8.2 64 0 0 1012.7
20:57 14.8 8.1 64 0 0 1012.8
21:07 14.7 8 64 0 0 1012.7
21:18 14.6 7.9 64 0 0 1012.8
21:27 14.6 7.9 64 0 0 1012.9
21:37 14.5 7.8 64 0 0 1013
21:48 14.4 7.7 64 0 0 1013
21:58 14.3 7.6 64 0 0 1013
22:07 14.1 7.6 65 0 0 1013.2
22:18 14 7.5 65 0 0 1013.2
22:28 14 7.5 65 0 0 1013.4
22:38 13.9 7.4 65 0 0 1013.4
22:48 13.8 7.3 65 0 0 1013.6
22:58 13.7 7.2 65 0 0 1013.6
23:08 13.6 7.2 65 0 0 1013.5
23:18 13.5 7.1 65 0 0 1013.6
23:28 13.5 7.1 65 0 0 1013.6
23:38 13.5 7.3 66 0 0 1013.7
23:48 13.4 7 65 0 0 1013.8
23:58 13.3 7.1 66 0 0 1013.8

ДНЕВНИ СТАТИСТИКИ

2021-09-19
ТЕМПЕРАТУРА
СРЕДНО
15.5
ВИСОКО
19.3
15:36
МИНИМУМ
12.7
02:02
АТМОСФЕРНО НАЛЯГАНЕ
СРЕДНО
1012.3
ВИСОКО
1013.8
23:48
МИНИМУМ
1011.6
17:47
ТОЧКА НА ОРОСЯВАНЕ
СРЕДНО
9.7
ВИСОКО
12.0
13:25
МИНИМУМ
7.0
23:48
ОТНОСИТЕЛНА ВЛАЖНОСТ
СРЕДНО
69
ВИСОКО
77
03:13
МИНИМУМ
59
15:26
СКОРОСТ НА ВЯТЪРА
СРЕДНО
0.0
ВИСОКО
0.0
07:40
ПОРИВИ НА ВЯТЪРА
СРЕДНО
0.0
ВИСОКО
0.0
07:40
ПОСОКА НА ВЯТЪРА
PREVAILING
%
ТЕМПЕРАТУРА (°C)
МИНИМУМ
12.7
ВИСОКО
19.3
СРЕДНО
15.5
АТМОСФЕРНО НАЛЯГАНЕ (hpa)
МИНИМУМ
1011.6
ВИСОКО
1013.8
СРЕДНО
1012.3
DEVICE